Share

Pilot Station, AK (99650)

St. Marys (PASM) Elev 312 ft | 62.06 °N, 163.30 °W | Change Station

Current weather conditions updated 7 minutes ago

Overcast
Overcast
37 °F
Feels Like 31 °F
N
8
Wind Variable Wind from ESE
Sunrise 7:10 AM
Sunset 10:33 PM
Moon Waning Gibbous

Today is forecast to be Cooler than yesterday. Showers possible.

Pressure 29.73 in
Visibility 10.0 miles
Clouds Overcast 9000 ft
Windchill 31 °F
Dew Point 27 °F
Humidity 65%
Rainfall 0.00 in
Snow Depth Not available.
UV 0 out of 16
Pollen Not available.
Air Quality Not available.
Flu Activity Sporadic
METAR PASM 211356Z AUTO 12007KT 10SM OVC090 03/M03 A2973 RMK AO1

More Conditions Fewer Conditions

Pressure 29.73 in
Visibility 10.0 miles
Clouds Overcast 9000 ft
Windchill 31 °F
Dew Point 27 °F
Humidity 65%
Rainfall 0.00 in
Snow Depth Not available.
UV 0 out of 16
Pollen Not available.
Air Quality Not available.
Flu Activity Sporadic
METAR PASM 211356Z AUTO 12007KT 10SM OVC090 03/M03 A2973 RMK AO1

More Conditions Fewer Conditions

10-Day Weather Forecast

Almanac

Astronomy

Apr. 21, 2014 Rise Set
Actual Time 7:10 AM AKDT 10:33 PM AKDT
Civil Twilight 6:18 AM AKDT 11:26 PM AKDT
Nautical Twilight 5:02 AM AKDT 12:44 AM AKDT
Astronomical Twilight 3:23 AM AKDT 2:18 AM AKDT
Moon 4:36 AM AKDT 12:30 PM AKDT
Length of Visible Light 17h 07m
Length of Day
15h 22m
Tomorrow will be 5m 49s longer.
Waning Gibbous, 59% of the Moon is Illuminated
Today
Waning Gibbous
Apr 22
Last Quarter
Apr 29
New
May 6
First Quarter
May 14
Full

Today's Extremes

State Highs State Lows

Community

  • Bright Eyes
    Bright Eyes
  • Snowy Robin
    Snowy Robin
  • Sun Pillar and Geese
    Sun Pillar and Geese
  • Showers on the Way
    Showers on the Way
  • Easter Morning Fog
    Easter Morning Fog

WunderPhotos

Upload Photos

1,703,634 photos uploaded!

Nearby

Snow Depth

Station Depth Elevation
Rocky Point 3 in 500 ft
Pargon Creek 1 in 300 ft
Mcneil Canyon 7 in 1320 ft
Port Graham 6 in 300 ft
Susitna Valley High 16 in 375 ft

Coastal Water Temperatures

Place Temperature
No Stations Reporting

Earthquake Activity

City Distance Mag. Time & Date
No recent earthquake activity has been reported nearby.
Minimum magnitude displayed is 2.5.

Nearby Weather Stations

There are no personal weather stations in this area.

What do you think?

We're not finished. Please let us know what you like, what you don't like, and what you are still missing.